Messwerte Toronto

Temperatur

Temperatur
°C
1618948800 16.00 16.00 5
1618952400 17.00 17.00 5
1618956000 18.00 18.00 4
1618959600 19.00 19.00 3
1618963200 20.00 20.00 2
1618966800 21.00 21.00 2
1618970400 22.00 22.00 3
1618974000 23.00 23.00
1618977600 0.00 0.00 1
1618981200 1.00 1.00 0
1618984800 2.00 2.00
1618988400 3.00 3.00 0
1618992000 4.00 4.00
1618995600 5.00 5.00 -1
1618999200 6.00 6.00 -1
1619002800 7.00 7.00 -1
1619006400 8.00 8.00 -1
1619010000 9.00 9.00 0
1619013600 10.00 10.00 0
1619017200 11.00 11.00 1
1619020800 12.00 12.00 2
1619024400 13.00 13.00 3
1619028000 14.00 14.00 2
1619031600 15.00 15.00 3

Aktuellste Messwerte

Wettercharakter
Wetter: bedeckt
Temperatur
3 °C
Feuchtigkeit
50 %
Wind
25 km/hWindrichtung: Nordwest
Böen
35 km/h
Luftdruck
1013 hPa
Messzeit: 21. April 2021, 15.00Datenquelle: METAR

Weitere Messstationen in der Nähe

Messstation Temperatur Entfernung
Toronto 3 °C 6 km
Toronto 3 °C 19 km
Port Weller 5 °C 43 km
Vineland Station Rcs 3 °C 49 km
Burlington Piers 3 °C 49 km
Saint Catharines Airport 2 °C 50 km
Hamilton Rbg Cs 4 °C 56 km

Wind

Windrichtung Böen Mittelwind
° km/h km/h
1618948800 16.00 15.00 - 16.00 250° 35 25
1618952400 17.00 16.00 - 17.00 270° 25
1618956000 18.00 17.00 - 18.00 270° 35 25
1618959600 19.00 18.00 - 19.00 230° 20
1618963200 20.00 19.00 - 20.00 260° 15
1618966800 21.00 20.00 - 21.00 270° 10
1618970400 22.00 21.00 - 22.00 320° 10
1618974000 23.00 22.00 - 23.00
1618977600 0.00 23.00 - 0.00 350° 15
1618981200 1.00 0.00 - 1.00 310° 10
1618984800 2.00 1.00 - 2.00
1618988400 3.00 2.00 - 3.00 300° 5
1618992000 4.00 3.00 - 4.00 340° 10
1618995600 5.00 4.00 - 5.00 310° 10
1618999200 6.00 5.00 - 6.00 310° 15
1619002800 7.00 6.00 - 7.00 310° 15
1619006400 8.00 7.00 - 8.00 320° 10
1619010000 9.00 8.00 - 9.00 310° 15
1619013600 10.00 9.00 - 10.00 320° 15
1619017200 11.00 10.00 - 11.00 350° 40 20
1619020800 12.00 11.00 - 12.00 310° 40 30
1619024400 13.00 12.00 - 13.00 320° 45 25
1619028000 14.00 13.00 - 14.00 310° 30 20
1619031600 15.00 14.00 - 15.00 310° 35 25

Ihre Wetterstation

Fehlt Ihre Wetterstation auf unserem Portal?

Schreiben Sie an network@meteonews.ch

Klima

Wann ist es am wärmsten? Wann regnet es am wenigsten? Unsere Klimadaten geben Auskunft.